Time;durP1;ratioP1;P1;durP2;ratioP2;P2;SDS_P1;SDS_P2;PMS_P1;PMS_P2;Temp;Humidity;BMP_temperature;BMP_pressure;BME280_temperature;BME280_humidity;BME280_pressure;Samples;Min_cycle;Max_cycle;Signal;HPM_P1;HPM_P2
2021/04/04 00:02:19;;;;;;;8.70;5.17;;;9.50;78.10;;;;;;5074795;28;20181;-68
2021/04/04 00:04:45;;;;;;;16.23;5.47;;;9.50;78.70;;;;;;5074250;28;20249;-69
2021/04/04 00:07:11;;;;;;;15.27;5.87;;;9.50;78.00;;;;;;5073928;28;20181;-69
2021/04/04 00:09:37;;;;;;;9.40;5.03;;;9.60;78.00;;;;;;5071749;28;20177;-69
2021/04/04 00:12:03;;;;;;;12.80;5.03;;;9.50;77.90;;;;;;5074125;28;20173;-69
2021/04/04 00:14:32;;;;;;;12.10;5.20;;;9.60;78.10;;;;;;5072859;28;20263;-68
2021/04/04 00:16:58;;;;;;;12.03;5.63;;;9.60;78.50;;;;;;5073722;28;20416;-69
2021/04/04 00:19:23;;;;;;;10.20;5.63;;;9.60;79.40;;;;;;5074013;28;20498;-70
2021/04/04 00:21:49;;;;;;;9.80;5.30;;;9.60;78.60;;;;;;5073469;28;20173;-69
2021/04/04 00:24:15;;;;;;;13.00;5.73;;;9.60;78.60;;;;;;5074102;28;20188;-68
2021/04/04 00:26:41;;;;;;;10.13;5.73;;;9.60;77.80;;;;;;5073681;28;20205;-68
2021/04/04 00:29:07;;;;;;;10.00;5.47;;;9.60;77.90;;;;;;5075154;28;20188;-69
2021/04/04 00:31:37;;;;;;;16.03;5.50;;;9.60;78.00;;;;;;5074043;28;20169;-69
2021/04/04 00:34:04;;;;;;;8.20;5.43;;;9.60;77.50;;;;;;5072274;28;20804;-69
2021/04/04 00:36:30;;;;;;;10.73;5.37;;;9.60;77.80;;;;;;5071459;28;20450;-69
2021/04/04 00:38:56;;;;;;;13.83;5.00;;;9.60;77.30;;;;;;5073725;28;20412;-69
2021/04/04 00:41:22;;;;;;;8.77;5.60;;;9.60;77.00;;;;;;5074049;28;20184;-68
2021/04/04 00:43:47;;;;;;;8.70;5.30;;;9.60;76.60;;;;;;5073025;28;20473;-68
2021/04/04 00:46:14;;;;;;;9.23;5.30;;;9.60;76.50;;;;;;5073923;28;20399;-68
2021/04/04 00:48:40;;;;;;;10.70;5.30;;;9.60;76.60;;;;;;5072889;28;20177;-71
2021/04/04 00:51:05;;;;;;;12.90;5.57;;;9.60;76.70;;;;;;5073895;28;20438;-68
2021/04/04 00:53:31;;;;;;;16.03;6.60;;;9.50;77.10;;;;;;5072935;28;20424;-69
2021/04/04 00:55:57;;;;;;;13.40;5.87;;;9.50;77.40;;;;;;5073337;28;20209;-68
2021/04/04 00:58:23;;;;;;;9.90;5.50;;;9.50;78.40;;;;;;5073258;28;20923;-68
2021/04/04 01:00:49;;;;;;;10.00;4.40;;;9.50;78.00;;;;;;5072864;28;20169;-69
2021/04/04 01:03:14;;;;;;;15.40;5.23;;;9.50;78.00;;;;;;5055610;28;20173;-68
2021/04/04 01:05:43;;;;;;;11.13;5.13;;;9.60;78.40;;;;;;5072156;28;20524;-69
2021/04/04 01:08:09;;;;;;;11.37;5.17;;;9.60;78.40;;;;;;5073684;28;20183;-69
2021/04/04 01:10:46;;;;;;;6.33;4.40;;;9.60;79.10;;;;;;5071445;28;20411;-69
2021/04/04 01:13:15;;;;;;;10.57;5.13;;;9.60;78.40;;;;;;5073574;28;20403;-68
2021/04/04 01:15:43;;;;;;;8.33;5.43;;;9.60;78.10;;;;;;5071823;28;20474;-68
2021/04/04 01:18:41;;;;;;;11.53;5.77;;;9.60;78.00;;;;;;5073229;28;20452;-68
2021/04/04 01:21:19;;;;;;;8.30;5.50;;;9.70;77.50;;;;;;5073147;28;20900;-68
2021/04/04 01:23:56;;;;;;;10.63;4.70;;;9.70;77.90;;;;;;5072482;28;20388;-68
2021/04/04 01:26:28;;;;;;;10.70;4.60;;;9.70;77.60;;;;;;5072844;28;20804;-68
2021/04/04 01:28:56;;;;;;;7.40;5.10;;;9.70;77.90;;;;;;5070447;28;20396;-68
2021/04/04 01:31:24;;;;;;;8.77;4.83;;;9.70;78.30;;;;;;5072758;28;20947;-69
2021/04/04 01:33:54;;;;;;;11.27;4.83;;;9.70;78.50;;;;;;5071844;28;20534;-68
2021/04/04 01:36:21;;;;;;;12.37;5.80;;;9.70;78.10;;;;;;5072629;28;20937;-69
2021/04/04 01:38:48;;;;;;;9.43;4.90;;;9.60;78.20;;;;;;5072070;28;20399;-69
2021/04/04 01:41:35;;;;;;;11.83;5.13;;;9.60;78.20;;;;;;5072331;28;20419;-69
2021/04/04 01:44:16;;;;;;;13.80;5.70;;;9.60;78.50;;;;;;5073195;28;20422;-69
2021/04/04 01:46:44;;;;;;;8.03;4.40;;;9.60;78.70;;;;;;5071812;28;20426;-68
2021/04/04 01:49:11;;;;;;;8.63;5.10;;;9.60;78.30;;;;;;5072762;28;20464;-68
2021/04/04 01:51:38;;;;;;;10.13;5.10;;;9.60;78.20;;;;;;5071637;28;20419;-69
2021/04/04 01:54:05;;;;;;;11.77;5.33;;;9.60;78.20;;;;;;5072611;28;20438;-68
2021/04/04 01:56:32;;;;;;;10.60;5.57;;;9.60;77.30;;;;;;5072193;28;20469;-70
2021/04/04 01:58:59;;;;;;;14.60;5.60;;;9.60;77.20;;;;;;5072384;28;20415;-68
2021/04/04 02:01:27;;;;;;;9.50;5.00;;;9.60;78.50;;;;;;5072233;28;20412;-69
2021/04/04 02:03:56;;;;;;;13.20;5.20;;;9.60;78.50;;;;;;5071733;28;21046;-68
2021/04/04 02:06:22;;;;;;;10.40;5.53;;;9.60;78.30;;;;;;5072173;28;20429;-69
2021/04/04 02:08:49;;;;;;;7.50;5.47;;;9.60;78.30;;;;;;5070489;28;20411;-69
2021/04/04 02:11:20;;;;;;;16.07;5.90;;;9.60;78.10;;;;;;5072345;28;20422;-68
2021/04/04 02:13:48;;;;;;;8.90;5.50;;;9.60;77.50;;;;;;5071883;28;20403;-69
2021/04/04 02:16:14;;;;;;;11.60;5.40;;;9.60;77.20;;;;;;5071823;28;20479;-69
2021/04/04 02:18:44;;;;;;;17.37;7.00;;;9.60;78.10;;;;;;5071516;28;20770;-69
2021/04/04 02:21:11;;;;;;;17.50;5.63;;;9.60;78.40;;;;;;5072460;28;20415;-69
2021/04/04 02:23:41;;;;;;;11.47;5.37;;;9.50;77.80;;;;;;5069995;28;20811;-69
2021/04/04 02:26:06;;;;;;;6.63;4.77;;;9.60;78.00;;;;;;5072264;28;20403;-69
2021/04/04 02:28:32;;;;;;;9.40;5.30;;;9.50;77.90;;;;;;5071934;28;20402;-70
2021/04/04 02:30:58;;;;;;;9.20;5.27;;;9.50;78.10;;;;;;5071746;28;20223;-69
2021/04/04 02:33:59;;;;;;;10.37;5.00;;;9.60;77.80;;;;;;5072206;28;20637;-69
2021/04/04 02:36:27;;;;;;;12.90;5.03;;;9.60;77.40;;;;;;5056775;28;20476;-69
2021/04/04 02:39:15;;;;;;;9.50;4.90;;;9.60;77.70;;;;;;5051791;28;21007;-69
2021/04/04 02:41:46;;;;;;;11.97;5.20;;;9.50;77.60;;;;;;5058241;28;20442;-69
2021/04/04 02:44:13;;;;;;;9.13;4.60;;;9.50;77.40;;;;;;5058817;28;20396;-69
2021/04/04 02:46:42;;;;;;;7.33;4.60;;;9.50;77.30;;;;;;5057618;28;20412;-69
2021/04/04 02:49:09;;;;;;;11.30;6.23;;;9.50;76.90;;;;;;5058661;28;20461;-69
2021/04/04 02:51:49;;;;;;;12.20;4.83;;;9.50;77.40;;;;;;5058241;28;20483;-70
2021/04/04 02:54:19;;;;;;;9.90;5.37;;;9.50;77.70;;;;;;5058541;28;20422;-69
2021/04/04 02:56:47;;;;;;;10.63;4.70;;;9.40;78.10;;;;;;5057662;28;20497;-69
2021/04/04 02:59:26;;;;;;;15.60;5.40;;;9.40;78.10;;;;;;5060623;28;20414;-69
2021/04/04 03:01:54;;;;;;;10.80;5.40;;;9.40;78.40;;;;;;5077808;28;20465;-69
2021/04/04 03:04:22;;;;;;;10.30;4.97;;;9.40;78.50;;;;;;5078286;28;20757;-69
2021/04/04 03:06:50;;;;;;;13.70;5.13;;;9.40;78.30;;;;;;5077712;28;20882;-69
2021/04/04 03:09:19;;;;;;;10.77;5.13;;;9.40;78.00;;;;;;5078543;28;20422;-68
2021/04/04 03:11:46;;;;;;;9.90;5.30;;;9.40;78.00;;;;;;5077397;28;20422;-69
2021/04/04 03:14:13;;;;;;;17.60;5.27;;;9.40;78.90;;;;;;5078443;28;20435;-68
2021/04/04 03:16:39;;;;;;;10.67;5.70;;;9.30;78.30;;;;;;5077762;28;20473;-69
2021/04/04 03:19:06;;;;;;;8.67;4.80;;;9.30;78.20;;;;;;5078456;28;20422;-69
2021/04/04 03:21:36;;;;;;;10.73;4.67;;;9.30;77.50;;;;;;5077950;28;20423;-70
2021/04/04 03:24:04;;;;;;;10.87;5.17;;;9.30;78.10;;;;;;5078078;28;20399;-69
2021/04/04 03:26:31;;;;;;;8.50;5.60;;;9.30;78.00;;;;;;5078108;28;20806;-69
2021/04/04 03:28:58;;;;;;;10.07;5.30;;;9.30;77.70;;;;;;5077151;28;20426;-69
2021/04/04 03:31:24;;;;;;;11.17;5.30;;;9.30;77.60;;;;;;5078086;28;20426;-69
2021/04/04 03:33:50;;;;;;;9.30;5.30;;;9.30;77.70;;;;;;5075844;28;20450;-69
2021/04/04 03:36:19;;;;;;;12.63;5.00;;;9.30;77.00;;;;;;5078360;28;20445;-69
2021/04/04 03:38:48;;;;;;;10.60;5.60;;;9.40;76.50;;;;;;5077369;28;20464;-69
2021/04/04 03:41:14;;;;;;;8.80;4.67;;;9.40;76.40;;;;;;5078026;28;20493;-69
2021/04/04 03:43:41;;;;;;;9.77;5.23;;;9.40;76.30;;;;;;5077372;28;20415;-69
2021/04/04 03:46:12;;;;;;;11.70;5.30;;;9.40;76.20;;;;;;5078019;28;20415;-69
2021/04/04 03:48:41;;;;;;;8.90;5.33;;;9.50;75.40;;;;;;5077582;28;20890;-70
2021/04/04 03:51:09;;;;;;;10.57;5.33;;;9.50;75.00;;;;;;5075670;28;20407;-69
2021/04/04 03:53:39;;;;;;;7.20;5.23;;;9.50;74.90;;;;;;5074631;28;20415;-69
2021/04/04 03:56:06;;;;;;;16.93;5.17;;;9.50;75.40;;;;;;5074715;28;20451;-69
2021/04/04 03:58:34;;;;;;;9.00;5.70;;;9.50;74.80;;;;;;5074651;28;20735;-69
2021/04/04 04:01:03;;;;;;;7.07;5.03;;;9.40;74.40;;;;;;5074045;28;20510;-69
2021/04/04 04:03:32;;;;;;;8.30;4.90;;;9.50;73.70;;;;;;5074729;28;20411;-69
2021/04/04 04:05:59;;;;;;;9.83;5.50;;;9.50;74.00;;;;;;5073896;28;20551;-69
2021/04/04 04:08:27;;;;;;;12.00;5.30;;;9.50;74.60;;;;;;5074685;28;20465;-69
2021/04/04 04:10:54;;;;;;;5.93;4.80;;;9.50;74.70;;;;;;5073809;28;20403;-69
2021/04/04 04:13:20;;;;;;;9.60;5.40;;;9.50;74.70;;;;;;5074618;28;20434;-69
2021/04/04 04:15:50;;;;;;;13.57;4.80;;;9.50;74.00;;;;;;5073501;28;20856;-69
2021/04/04 04:18:16;;;;;;;7.60;5.43;;;9.60;73.20;;;;;;5074407;28;20412;-69
2021/04/04 04:20:45;;;;;;;11.97;5.00;;;9.60;73.30;;;;;;5073670;28;20756;-70
2021/04/04 04:23:11;;;;;;;7.50;5.37;;;9.60;74.50;;;;;;5074245;28;20773;-69
2021/04/04 04:25:38;;;;;;;9.47;5.57;;;9.50;74.20;;;;;;5074360;28;20454;-69
2021/04/04 04:28:05;;;;;;;12.57;6.83;;;9.40;74.00;;;;;;5073593;28;20450;-69
2021/04/04 04:30:32;;;;;;;11.33;5.27;;;9.40;74.10;;;;;;5074381;28;20411;-69
2021/04/04 04:33:04;;;;;;;9.60;4.90;;;9.50;74.00;;;;;;5072205;28;20438;-69
2021/04/04 04:35:32;;;;;;;7.93;5.10;;;9.50;74.00;;;;;;5073813;28;20466;-69
2021/04/04 04:37:58;;;;;;;9.60;8.10;;;9.50;74.20;;;;;;5073377;28;20411;-69
2021/04/04 04:40:26;;;;;;;12.57;6.90;;;9.50;73.80;;;;;;5073975;28;20419;-69
2021/04/04 04:42:54;;;;;;;9.00;5.50;;;9.50;73.20;;;;;;5072943;28;20407;-69
2021/04/04 04:45:38;;;;;;;6.83;5.40;;;9.50;73.30;;;;;;5073954;28;20496;-69
2021/04/04 04:48:05;;;;;;;10.00;5.27;;;9.40;73.30;;;;;;5073159;28;20414;-69
2021/04/04 04:50:33;;;;;;;9.47;4.80;;;9.50;72.50;;;;;;5073588;28;20950;-69
2021/04/04 04:52:59;;;;;;;10.57;5.60;;;9.50;72.80;;;;;;5072728;28;20442;-69
2021/04/04 04:55:25;;;;;;;9.07;6.10;;;9.40;73.80;;;;;;5073694;28;20469;-70
2021/04/04 04:57:53;;;;;;;11.07;6.10;;;9.40;74.20;;;;;;5072996;28;20951;-71
2021/04/04 05:00:19;;;;;;;9.13;6.70;;;9.40;73.10;;;;;;5072505;28;20480;-70
2021/04/04 05:02:45;;;;;;;8.60;4.73;;;9.40;72.20;;;;;;5071914;28;20427;-71
2021/04/04 05:05:13;;;;;;;13.07;5.80;;;9.50;72.80;;;;;;5073279;28;20811;-70
2021/04/04 05:07:40;;;;;;;10.53;5.60;;;9.40;73.10;;;;;;5073560;28;20175;-70
2021/04/04 05:10:08;;;;;;;11.30;5.50;;;9.40;72.30;;;;;;5071621;28;20469;-70
2021/04/04 05:12:42;;;;;;;8.97;5.07;;;9.40;73.20;;;;;;5073389;28;20419;-70
2021/04/04 05:15:08;;;;;;;12.47;5.73;;;9.40;72.50;;;;;;5072742;28;20470;-70
2021/04/04 05:17:35;;;;;;;7.80;4.93;;;9.40;73.10;;;;;;5072702;28;20435;-70
2021/04/04 05:20:02;;;;;;;8.40;5.90;;;9.40;72.80;;;;;;5071986;28;20502;-70
2021/04/04 05:22:28;;;;;;;11.83;5.37;;;9.50;72.90;;;;;;5073262;28;20415;-70
2021/04/04 05:24:56;;;;;;;7.60;5.40;;;9.50;73.60;;;;;;5072379;28;20411;-70
2021/04/04 05:27:22;;;;;;;15.00;6.00;;;9.40;73.30;;;;;;5072256;28;20496;-70
2021/04/04 05:29:48;;;;;;;19.53;6.13;;;9.40;72.30;;;;;;5072831;28;20416;-71
2021/04/04 05:32:15;;;;;;;10.00;6.30;;;9.40;73.60;;;;;;5072359;28;20176;-70
2021/04/04 05:34:40;;;;;;;12.23;5.60;;;9.40;75.30;;;;;;5072496;28;20454;-70
2021/04/04 05:37:08;;;;;;;6.60;5.60;;;9.40;74.90;;;;;;5072247;28;20446;-70
2021/04/04 05:39:36;;;;;;;10.60;5.70;;;9.40;75.30;;;;;;5072958;28;20176;-70
2021/04/04 05:42:10;;;;;;;12.47;5.33;;;9.40;75.30;;;;;;5072082;28;20452;-70
2021/04/04 05:45:09;;;;;;;7.63;5.10;;;9.40;74.90;;;;;;5072845;28;20435;-70
2021/04/04 05:47:44;;;;;;;12.27;5.90;;;9.40;74.30;;;;;;5051380;28;20539;-70
2021/04/04 05:50:25;;;;;;;11.53;5.53;;;9.40;74.60;;;;;;5052375;28;20400;-70
2021/04/04 05:53:19;;;;;;;13.50;5.67;;;9.40;74.60;;;;;;5063141;28;20461;-71
2021/04/04 05:56:17;;;;;;;10.63;6.33;;;9.30;74.70;;;;;;5072334;28;20443;-72
2021/04/04 05:58:56;;;;;;;13.10;6.50;;;9.40;75.00;;;;;;5072240;28;20431;-70
2021/04/04 06:01:24;;;;;;;10.40;5.20;;;9.40;74.20;;;;;;5072337;28;20911;-70
2021/04/04 06:04:26;;;;;;;8.13;5.40;;;9.30;73.90;;;;;;5071937;28;20431;-70
2021/04/04 06:07:28;;;;;;;13.23;5.63;;;9.40;73.00;;;;;;5082693;28;20419;-70
2021/04/04 06:10:08;;;;;;;10.50;5.23;;;9.40;74.10;;;;;;5058122;28;20905;-70
2021/04/04 06:13:14;;;;;;;9.10;5.70;;;9.40;74.10;;;;;;5069351;28;20464;-70
2021/04/04 06:16:01;;;;;;;11.50;6.13;;;9.40;73.30;;;;;;5068688;28;20474;-70
2021/04/04 06:18:54;;;;;;;6.03;5.43;;;9.40;72.80;;;;;;5071555;28;20404;-70
2021/04/04 06:21:44;;;;;;;12.70;6.13;;;9.30;73.00;;;;;;5072232;28;20807;-70
2021/04/04 06:24:18;;;;;;;7.77;5.63;;;9.40;73.00;;;;;;5072842;28;20427;-70
2021/04/04 06:27:23;;;;;;;8.23;5.13;;;9.40;73.00;;;;;;5072967;28;20388;-71
2021/04/04 06:30:20;;;;;;;12.20;5.80;;;9.50;73.00;;;;;;5066655;28;20434;-70
2021/04/04 06:33:13;;;;;;;11.97;5.47;;;9.50;72.50;;;;;;5069853;28;20458;-71
2021/04/04 06:35:48;;;;;;;7.17;5.83;;;9.50;73.00;;;;;;5071598;28;20446;-70
2021/04/04 06:38:43;;;;;;;6.63;5.90;;;9.50;73.50;;;;;;5081714;28;20439;-70
2021/04/04 06:41:53;;;;;;;8.97;5.40;;;9.50;74.20;;;;;;5071119;28;20490;-70
2021/04/04 06:44:38;;;;;;;7.17;5.03;;;9.60;72.70;;;;;;5041419;28;20785;-70
2021/04/04 06:47:19;;;;;;;10.73;5.97;;;9.60;72.80;;;;;;5057385;28;20414;-70
2021/04/04 06:50:00;;;;;;;14.93;6.00;;;9.60;72.70;;;;;;5076561;28;20926;-70
2021/04/04 06:52:44;;;;;;;9.90;5.93;;;9.60;72.70;;;;;;5065290;28;20462;-70
2021/04/04 06:55:47;;;;;;;6.60;4.77;;;9.60;71.90;;;;;;5071309;28;20500;-70
2021/04/04 06:58:18;;;;;;;10.80;5.00;;;9.70;73.00;;;;;;5072292;28;20431;-70
2021/04/04 07:01:09;;;;;;;7.37;5.63;;;9.70;74.00;;;;;;5071490;28;20442;-71
2021/04/04 07:04:07;;;;;;;6.77;4.83;;;9.70;72.30;;;;;;5072372;28;20400;-70
2021/04/04 07:06:39;;;;;;;7.97;4.47;;;9.70;72.80;;;;;;5072331;28;20506;-71
2021/04/04 07:09:35;;;;;;;7.03;4.67;;;9.70;71.70;;;;;;5071058;28;20424;-70
2021/04/04 07:12:19;;;;;;;9.33;4.67;;;9.70;71.90;;;;;;5071230;28;20427;-71
2021/04/04 07:15:04;;;;;;;10.70;4.93;;;9.80;72.20;;;;;;5070370;28;20502;-70
2021/04/04 07:17:35;;;;;;;7.77;5.60;;;9.80;71.50;;;;;;5072117;28;20415;-70
2021/04/04 07:20:16;;;;;;;13.67;4.97;;;9.80;71.30;;;;;;5071074;28;20428;-71
2021/04/04 07:22:42;;;;;;;10.73;5.67;;;9.80;71.90;;;;;;5070844;28;20396;-71
2021/04/04 07:25:37;;;;;;;17.70;5.40;;;9.80;72.30;;;;;;5070241;28;20437;-71
2021/04/04 07:28:34;;;;;;;7.70;5.00;;;9.70;71.40;;;;;;5075065;28;20629;-70
2021/04/04 07:31:04;;;;;;;9.43;5.20;;;9.80;72.30;;;;;;5074181;28;20419;-71
2021/04/04 07:33:53;;;;;;;9.57;5.00;;;9.70;73.20;;;;;;5075352;28;20813;-70
2021/04/04 07:36:46;;;;;;;10.63;5.00;;;9.70;73.20;;;;;;5075084;28;20450;-71
2021/04/04 07:39:52;;;;;;;7.50;4.80;;;9.70;73.70;;;;;;5074044;28;20907;-70
2021/04/04 07:42:55;;;;;;;7.90;5.60;;;9.70;74.50;;;;;;5075550;28;20395;-70
2021/04/04 07:45:35;;;;;;;9.13;6.00;;;9.70;74.70;;;;;;5075316;28;20410;-71
2021/04/04 07:48:23;;;;;;;11.20;5.47;;;9.70;74.30;;;;;;5073420;28;20498;-71
2021/04/04 07:51:01;;;;;;;10.50;5.10;;;9.70;75.00;;;;;;5075495;28;20392;-71
2021/04/04 07:53:42;;;;;;;7.93;6.40;;;9.60;74.40;;;;;;5075385;28;20737;-68
2021/04/04 07:56:28;;;;;;;10.43;5.97;;;9.40;75.50;;;;;;5073231;28;20447;-69
2021/04/04 07:59:01;;;;;;;10.93;7.23;;;9.50;76.70;;;;;;5074744;28;20755;-68
2021/04/04 08:01:36;;;;;;;13.33;6.90;;;9.50;76.30;;;;;;5075402;28;20876;-69
2021/04/04 08:04:21;;;;;;;12.37;7.00;;;9.50;75.70;;;;;;5073178;28;20395;-71
2021/04/04 08:07:02;;;;;;;13.77;6.80;;;9.60;75.70;;;;;;5074163;28;20442;-71
2021/04/04 08:09:44;;;;;;;11.10;6.90;;;9.60;75.30;;;;;;5055100;28;20484;-71
2021/04/04 08:12:14;;;;;;;11.63;6.93;;;9.60;75.90;;;;;;5054479;28;20412;-71
2021/04/04 08:15:01;;;;;;;13.60;7.83;;;9.60;76.10;;;;;;5075204;28;20413;-71
2021/04/04 08:17:27;;;;;;;10.17;6.47;;;9.70;75.30;;;;;;5075529;28;20430;-71
2021/04/04 08:20:00;;;;;;;10.87;7.00;;;9.80;74.50;;;;;;5074027;28;20407;-71
2021/04/04 08:22:40;;;;;;;15.00;6.60;;;9.80;74.10;;;;;;5073410;28;20169;-71
2021/04/04 08:25:11;;;;;;;14.63;8.20;;;9.90;73.60;;;;;;5071551;28;20419;-71
2021/04/04 08:27:44;;;;;;;17.83;11.70;;;9.90;74.30;;;;;;5072907;28;20879;-71
2021/04/04 08:30:42;;;;;;;23.03;12.90;;;9.90;75.90;;;;;;5070009;28;20404;-71
2021/04/04 08:33:14;;;;;;;18.87;12.30;;;9.90;74.60;;;;;;5073399;28;20997;-71
2021/04/04 08:35:44;;;;;;;18.97;13.60;;;9.90;73.30;;;;;;5072293;28;20471;-71
2021/04/04 08:38:35;;;;;;;18.97;13.60;;;9.90;75.40;;;;;;5070434;28;20928;-71
2021/04/04 08:41:03;;;;;;;17.37;11.60;;;9.80;75.60;;;;;;5072855;28;20485;-71
2021/04/04 08:43:30;;;;;;;19.00;13.17;;;9.80;76.10;;;;;;5073908;28;20457;-70
2021/04/04 08:46:07;;;;;;;17.30;12.17;;;9.90;75.50;;;;;;5072717;28;20419;-72
2021/04/04 08:48:33;;;;;;;15.43;11.57;;;9.90;75.80;;;;;;5074103;28;20887;-71
2021/04/04 08:51:04;;;;;;;17.83;11.90;;;9.90;75.00;;;;;;5073008;28;20443;-72
2021/04/04 08:53:41;;;;;;;16.20;11.53;;;9.90;77.00;;;;;;5074289;28;20437;-72
2021/04/04 08:56:07;;;;;;;336.63;174.07;;;9.90;75.90;;;;;;5072716;28;20447;-72
2021/04/04 08:58:41;;;;;;;72.33;42.73;;;9.90;77.60;;;;;;5073321;28;20439;-72
2021/04/04 09:01:24;;;;;;;25.20;12.87;;;9.90;77.30;;;;;;5073193;28;20415;-72
2021/04/04 09:03:59;;;;;;;17.83;10.47;;;9.90;76.10;;;;;;5073373;28;20517;-69
2021/04/04 09:06:33;;;;;;;13.63;10.20;;;9.90;78.00;;;;;;5074000;28;20384;-69
2021/04/04 09:08:59;;;;;;;14.90;9.10;;;9.90;76.70;;;;;;5073462;28;20403;-69
2021/04/04 09:11:26;;;;;;;14.63;9.47;;;9.90;76.00;;;;;;5073264;28;20511;-70
2021/04/04 09:13:58;;;;;;;12.70;9.20;;;9.90;76.00;;;;;;5073743;28;20181;-70
2021/04/04 09:16:24;;;;;;;13.27;9.87;;;9.90;76.30;;;;;;5073337;28;20575;-69
2021/04/04 09:18:53;;;;;;;14.97;9.27;;;9.90;75.90;;;;;;5073634;28;20431;-69
2021/04/04 09:21:21;;;;;;;14.20;9.87;;;9.90;76.40;;;;;;5073782;28;20414;-69
2021/04/04 09:23:48;;;;;;;15.10;11.07;;;10.00;76.10;;;;;;5073602;28;20408;-69
2021/04/04 09:26:21;;;;;;;14.87;9.80;;;10.00;77.30;;;;;;5072988;28;20848;-70
2021/04/04 09:28:49;;;;;;;15.63;10.30;;;10.00;77.30;;;;;;5073512;28;20407;-71
2021/04/04 09:31:19;;;;;;;15.20;9.20;;;10.00;77.70;;;;;;5080423;28;20490;-70
2021/04/04 09:34:02;;;;;;;13.17;8.20;;;10.00;77.40;;;;;;5081279;28;20464;-70
2021/04/04 09:36:46;;;;;;;8.90;6.93;;;10.10;76.50;;;;;;5071679;28;20834;-70
2021/04/04 09:39:18;;;;;;;608.43;368.90;;;10.00;77.30;;;;;;5072750;28;20400;-70
2021/04/04 09:41:45;;;;;;;26.40;15.00;;;10.00;78.30;;;;;;5072746;28;20435;-69
2021/04/04 09:44:12;;;;;;;11.73;8.50;;;10.00;77.20;;;;;;5072652;28;20476;-71
2021/04/04 09:46:55;;;;;;;12.50;7.30;;;10.00;77.20;;;;;;5073235;28;20419;-71
2021/04/04 09:49:53;;;;;;;10.33;7.07;;;10.10;76.70;;;;;;5071096;28;20420;-71
2021/04/04 09:52:28;;;;;;;10.27;7.20;;;10.20;76.90;;;;;;5048869;28;20488;-71
2021/04/04 09:55:08;;;;;;;8.87;6.87;;;10.20;77.10;;;;;;5071548;28;20415;-71
2021/04/04 09:57:41;;;;;;;8.93;7.30;;;10.20;77.20;;;;;;5073024;28;20391;-71
2021/04/04 10:00:30;;;;;;;8.90;6.97;;;10.20;77.40;;;;;;5072213;28;20759;-71
2021/04/04 10:03:08;;;;;;;13.30;8.40;;;10.20;77.40;;;;;;5071605;28;20399;-71
2021/04/04 10:05:39;;;;;;;12.63;9.73;;;10.20;77.20;;;;;;5072601;28;20421;-71
2021/04/04 10:08:14;;;;;;;10.20;8.30;;;10.20;77.20;;;;;;5072383;28;20883;-71
2021/04/04 10:10:42;;;;;;;12.40;8.70;;;10.30;76.90;;;;;;5072922;28;20399;-71
2021/04/04 10:13:08;;;;;;;10.93;8.40;;;10.30;77.30;;;;;;5072102;28;20844;-71
2021/04/04 10:15:48;;;;;;;10.43;7.90;;;10.30;75.70;;;;;;5072538;28;20537;-71
2021/04/04 10:18:15;;;;;;;11.33;8.40;;;10.30;75.30;;;;;;5072271;28;20255;-71
2021/04/04 10:20:53;;;;;;;11.60;7.70;;;10.40;76.10;;;;;;5072496;28;20440;-71
2021/04/04 10:23:20;;;;;;;12.60;10.13;;;10.40;75.40;;;;;;5071798;28;20513;-71
2021/04/04 10:26:05;;;;;;;14.77;11.60;;;10.40;74.80;;;;;;5071889;28;20915;-71
2021/04/04 10:28:45;;;;;;;13.33;10.70;;;10.40;75.30;;;;;;5070516;28;20764;-71
2021/04/04 10:31:11;;;;;;;11.53;9.73;;;10.40;76.10;;;;;;5070062;28;20408;-71
2021/04/04 10:33:38;;;;;;;14.57;9.97;;;10.30;76.40;;;;;;5071128;28;20423;-71
2021/04/04 10:36:30;;;;;;;14.20;10.20;;;10.30;77.00;;;;;;5067942;28;20463;-71
2021/04/04 10:38:57;;;;;;;41.37;32.20;;;10.30;76.30;;;;;;5068731;28;20432;-71
2021/04/04 10:41:35;;;;;;;85.10;54.70;;;10.30;77.40;;;;;;5070373;28;20525;-71
2021/04/04 10:44:01;;;;;;;14.03;10.83;;;10.30;77.00;;;;;;5068242;28;20430;-72
2021/04/04 10:46:31;;;;;;;10.50;9.23;;;10.40;76.10;;;;;;5070738;28;20426;-71
2021/04/04 10:48:59;;;;;;;11.97;9.87;;;10.40;75.00;;;;;;5068096;28;20407;-72
2021/04/04 10:51:25;;;;;;;14.50;10.03;;;10.40;75.30;;;;;;5071083;28;20443;-71
2021/04/04 10:53:51;;;;;;;12.60;10.07;;;10.50;75.90;;;;;;5070959;28;20408;-71
2021/04/04 10:56:17;;;;;;;11.33;9.20;;;10.50;75.40;;;;;;5067623;28;20542;-71
2021/04/04 10:58:45;;;;;;;16.03;10.63;;;10.50;75.70;;;;;;5070167;28;20461;-73
2021/04/04 11:01:12;;;;;;;13.33;11.63;;;10.50;76.10;;;;;;5071308;28;20462;-71
2021/04/04 11:03:42;;;;;;;15.10;12.03;;;10.50;75.40;;;;;;5072588;28;20488;-71
2021/04/04 11:06:10;;;;;;;16.27;12.40;;;10.50;75.70;;;;;;5072931;28;20422;-71
2021/04/04 11:08:36;;;;;;;15.07;11.80;;;10.50;75.80;;;;;;5073594;28;20412;-71
2021/04/04 11:11:03;;;;;;;19.17;13.43;;;10.50;75.90;;;;;;5074044;28;20415;-71
2021/04/04 11:13:29;;;;;;;13.50;12.10;;;10.50;75.20;;;;;;5074540;28;20955;-71
2021/04/04 11:15:59;;;;;;;15.97;11.47;;;10.50;75.40;;;;;;5074064;28;20567;-73
2021/04/04 11:18:36;;;;;;;16.03;12.10;;;10.50;75.20;;;;;;5075125;28;20424;-72
2021/04/04 11:21:07;;;;;;;13.27;11.83;;;10.50;75.70;;;;;;5074097;28;20518;-70
2021/04/04 11:23:36;;;;;;;14.40;12.63;;;10.50;75.40;;;;;;5075400;28;20409;-70
2021/04/04 11:26:29;;;;;;;18.30;13.73;;;10.60;75.60;;;;;;5074850;28;20443;-71
2021/04/04 11:29:19;;;;;;;19.60;14.60;;;10.60;75.70;;;;;;5074328;28;20408;-70
2021/04/04 11:31:47;;;;;;;17.50;14.17;;;10.60;76.20;;;;;;5073416;28;20387;-70
2021/04/04 11:34:34;;;;;;;17.80;15.07;;;10.60;75.50;;;;;;5074323;28;20974;-70
2021/04/04 11:37:02;;;;;;;552.30;347.83;;;10.60;75.80;;;;;;5072352;28;20442;-71
2021/04/04 11:39:28;;;;;;;116.47;68.83;;;10.60;77.30;;;;;;5075341;28;20450;-70
2021/04/04 11:41:55;;;;;;;20.47;17.30;;;10.60;76.90;;;;;;5075750;28;20400;-70
2021/04/04 11:44:35;;;;;;;22.30;17.30;;;10.50;76.90;;;;;;5073205;28;20413;-69
2021/04/04 11:47:21;;;;;;;22.53;16.77;;;10.50;77.00;;;;;;5070507;28;20438;-71
2021/04/04 11:49:54;;;;;;;20.30;16.37;;;10.50;76.50;;;;;;5073192;28;20825;-70
2021/04/04 11:52:22;;;;;;;17.93;16.07;;;10.50;77.60;;;;;;5073067;28;20427;-71
2021/04/04 11:54:49;;;;;;;18.50;15.90;;;10.40;77.90;;;;;;5073394;28;20400;-70
2021/04/04 11:57:18;;;;;;;17.10;15.30;;;10.40;78.10;;;;;;5071551;28;20986;-70
2021/04/04 11:59:44;;;;;;;21.40;17.90;;;10.40;77.60;;;;;;5074833;28;20808;-70
2021/04/04 12:02:12;;;;;;;19.87;17.20;;;10.50;78.40;;;;;;5073786;28;20400;-70
2021/04/04 12:04:48;;;;;;;19.67;17.30;;;10.40;79.00;;;;;;5074837;28;20736;-70
2021/04/04 12:07:16;;;;;;;18.97;15.50;;;10.40;79.40;;;;;;5073560;28;20797;-70
2021/04/04 12:09:44;;;;;;;20.03;17.20;;;10.40;81.00;;;;;;5078155;28;20853;-70
2021/04/04 12:12:11;;;;;;;19.93;15.90;;;10.40;81.30;;;;;;5073320;28;20420;-70
2021/04/04 12:14:53;;;;;;;25.30;17.40;;;10.40;80.90;;;;;;5074401;28;20415;-70
2021/04/04 12:17:24;;;;;;;22.60;16.87;;;10.40;80.00;;;;;;5073360;28;20428;-70
2021/04/04 12:19:50;;;;;;;21.70;17.53;;;10.40;79.90;;;;;;5074495;28;20418;-70
2021/04/04 12:22:18;;;;;;;21.47;16.87;;;10.50;79.90;;;;;;5073625;28;20488;-73
2021/04/04 12:24:45;;;;;;;22.20;17.23;;;10.50;79.80;;;;;;5074368;28;20612;-71
2021/04/04 12:27:16;;;;;;;19.30;16.97;;;10.50;79.30;;;;;;5069565;28;20416;-71
2021/04/04 12:29:47;;;;;;;22.67;17.13;;;10.50;79.40;;;;;;5075253;28;20424;-71
2021/04/04 12:32:30;;;;;;;20.93;17.37;;;10.60;79.40;;;;;;5068839;28;20435;-70
2021/04/04 12:35:02;;;;;;;18.90;16.70;;;10.60;79.40;;;;;;5070357;28;20477;-71
2021/04/04 12:37:30;;;;;;;21.10;17.77;;;10.60;79.10;;;;;;5070988;28;20533;-70
2021/04/04 12:39:59;;;;;;;19.20;15.20;;;10.70;80.40;;;;;;5073729;28;21006;-70
2021/04/04 12:42:33;;;;;;;15.03;13.23;;;10.70;78.10;;;;;;5072887;28;20466;-71
2021/04/04 12:45:03;;;;;;;21.73;17.10;;;10.80;78.20;;;;;;5073548;28;20400;-70
2021/04/04 12:47:29;;;;;;;20.60;15.63;;;10.80;77.50;;;;;;5070647;28;20495;-70
2021/04/04 12:50:04;;;;;;;18.83;15.37;;;10.90;77.10;;;;;;5071876;28;20503;-70
2021/04/04 12:52:37;;;;;;;16.57;13.17;;;10.90;77.10;;;;;;5073452;28;20174;-70
2021/04/04 12:55:12;;;;;;;18.10;14.90;;;10.90;77.10;;;;;;5073344;28;20421;-71
2021/04/04 12:57:38;;;;;;;14.73;12.80;;;10.90;77.30;;;;;;5073521;28;20439;-70
2021/04/04 13:00:12;;;;;;;392.45;317.38;;;10.90;77.70;;;;;;5072608;28;20394;-71
2021/04/04 13:02:38;;;;;;;207.33;131.77;;;11.00;78.10;;;;;;5074093;28;20192;-70
2021/04/04 13:05:04;;;;;;;29.20;21.50;;;11.10;76.70;;;;;;5073299;28;20402;-70
2021/04/04 13:07:30;;;;;;;16.13;13.60;;;11.10;77.20;;;;;;5073322;28;20581;-70
2021/04/04 13:09:56;;;;;;;15.00;11.80;;;11.10;76.80;;;;;;5073324;28;20404;-70
2021/04/04 13:12:22;;;;;;;13.60;11.57;;;11.10;77.00;;;;;;5072891;28;20674;-70
2021/04/04 13:14:48;;;;;;;16.53;11.33;;;11.10;76.20;;;;;;5072948;28;20494;-70